createdAt,value
2022-09-28T05:25:26.245Z,8.30
2022-09-28T05:28:03.954Z,8.30
2022-09-28T05:30:40.623Z,8.30
2022-09-28T05:33:31.758Z,8.30
2022-09-28T05:36:12.535Z,8.30
2022-09-28T05:38:40.208Z,8.40
2022-09-28T05:41:07.640Z,8.50
2022-09-28T05:43:35.045Z,8.50
2022-09-28T05:46:07.214Z,8.50
2022-09-28T05:48:37.828Z,8.60
2022-09-28T05:51:05.213Z,8.70
2022-09-28T05:53:32.792Z,8.70
2022-09-28T05:56:00.520Z,8.80
2022-09-28T05:58:30.240Z,8.80
2022-09-28T06:00:59.501Z,8.90
2022-09-28T06:03:27.331Z,9.00
2022-09-28T06:05:54.773Z,9.00
2022-09-28T06:08:22.406Z,9.10
2022-09-28T06:11:02.202Z,9.10
2022-09-28T06:13:30.083Z,9.30
2022-09-28T06:15:57.663Z,9.50
2022-09-28T06:18:27.006Z,9.50
2022-09-28T06:21:13.688Z,9.70
2022-09-28T06:23:49.028Z,10.00
2022-09-28T06:26:18.316Z,10.20
2022-09-28T06:28:46.572Z,10.20
2022-09-28T06:31:13.986Z,10.20
2022-09-28T06:33:46.411Z,10.20
2022-09-28T06:36:14.064Z,10.00
2022-09-28T06:38:41.432Z,10.00
2022-09-28T06:41:11.041Z,9.90
2022-09-28T06:43:40.491Z,9.70
2022-09-28T06:46:14.570Z,9.70
2022-09-28T06:48:47.479Z,9.70
2022-09-28T06:51:19.972Z,9.80
2022-09-28T06:54:10.926Z,9.90
2022-09-28T06:56:49.541Z,10.00
2022-09-28T06:59:19.300Z,10.00
2022-09-28T07:01:47.153Z,10.00
2022-09-28T07:04:21.693Z,10.20
2022-09-28T07:07:15.442Z,10.20
2022-09-28T07:10:06.431Z,10.10
2022-09-28T07:12:44.420Z,10.30
2022-09-28T07:15:24.679Z,10.20
2022-09-28T07:18:04.330Z,10.20
2022-09-28T07:20:45.761Z,11.00
2022-09-28T07:23:19.821Z,10.40
2022-09-28T07:26:26.243Z,10.80
2022-09-28T07:29:05.082Z,10.80
2022-09-28T07:31:39.619Z,10.80
2022-09-28T07:34:38.126Z,10.90
2022-09-28T07:37:14.931Z,11.10
2022-09-28T07:40:05.025Z,11.50
2022-09-28T07:42:36.678Z,11.80
2022-09-28T07:45:06.874Z,12.00
2022-09-28T07:47:35.715Z,12.50
2022-09-28T07:50:31.705Z,13.60
2022-09-28T07:53:04.502Z,14.10
2022-09-28T07:55:42.696Z,13.70
2022-09-28T07:58:31.507Z,13.40
2022-09-28T08:01:22.265Z,13.00
2022-09-28T08:03:51.760Z,12.60
2022-09-28T08:06:19.331Z,13.10
2022-09-28T08:08:47.305Z,14.50
2022-09-28T08:11:19.129Z,14.70
2022-09-28T08:14:18.906Z,14.50
2022-09-28T08:17:15.931Z,13.10
2022-09-28T08:20:06.429Z,13.60
2022-09-28T08:22:35.704Z,15.00
2022-09-28T08:25:03.767Z,15.30
2022-09-28T08:27:31.755Z,14.70
2022-09-28T08:29:59.305Z,14.10
2022-09-28T08:33:08.018Z,13.80
2022-09-28T08:35:47.408Z,13.50
2022-09-28T08:38:31.489Z,14.10
2022-09-28T08:41:22.632Z,14.40
2022-09-28T08:44:16.448Z,14.70
2022-09-28T08:47:53.834Z,16.10
2022-09-28T08:50:31.867Z,16.50
2022-09-28T08:53:41.185Z,16.20
2022-09-28T08:56:42.597Z,14.90
2022-09-28T08:59:21.119Z,14.80
2022-09-28T09:02:01.393Z,14.80
2022-09-28T09:04:31.080Z,14.00
2022-09-28T09:07:50.089Z,14.50
2022-09-28T09:10:34.063Z,14.20
2022-09-28T09:13:04.706Z,13.60
2022-09-28T09:15:41.567Z,13.70
2022-09-28T09:18:25.752Z,14.00
2022-09-28T09:21:42.205Z,15.40
2022-09-28T09:24:42.183Z,15.60
2022-09-28T09:27:18.571Z,17.90
2022-09-28T09:30:02.818Z,17.50
2022-09-28T09:38:21.832Z,16.40
2022-09-28T09:41:17.367Z,15.50
2022-09-28T09:44:40.028Z,15.20
2022-09-28T09:47:35.956Z,15.20
2022-09-28T09:50:40.949Z,14.80
2022-09-28T09:53:21.516Z,14.60
2022-09-28T09:55:54.932Z,14.50
2022-09-28T09:58:46.284Z,14.20
2022-09-28T10:01:32.630Z,14.40
2022-09-28T10:04:26.140Z,15.40
2022-09-28T10:07:01.482Z,14.90
2022-09-28T10:09:42.523Z,15.20
2022-09-28T10:12:33.717Z,14.90
2022-09-28T10:15:07.622Z,14.80
2022-09-28T10:17:47.128Z,15.50
2022-09-28T10:20:37.641Z,16.70
2022-09-28T10:23:33.981Z,18.00
2022-09-28T10:26:07.723Z,18.30
2022-09-28T10:28:43.227Z,18.50
2022-09-28T10:31:35.472Z,17.80
2022-09-28T10:34:07.198Z,17.10
2022-09-28T10:36:50.092Z,17.40
2022-09-28T10:39:36.967Z,17.50
2022-09-28T10:42:11.303Z,17.30
2022-09-28T10:44:51.967Z,16.90
2022-09-28T10:47:31.425Z,16.30
2022-09-28T10:50:00.101Z,15.80
2022-09-28T10:52:36.469Z,15.50
2022-09-28T10:55:33.761Z,15.20
2022-09-28T10:58:25.043Z,15.70
2022-09-28T11:00:58.277Z,16.20
2022-09-28T11:03:28.233Z,18.20
2022-09-28T11:06:06.037Z,19.40
2022-09-28T11:08:39.056Z,19.90
2022-09-28T11:11:14.588Z,20.40
2022-09-28T11:13:49.657Z,20.70
2022-09-28T11:16:35.322Z,22.20
2022-09-28T11:19:26.921Z,22.20
2022-09-28T11:21:55.581Z,23.20
2022-09-28T11:24:30.976Z,23.60
2022-09-28T11:27:01.362Z,23.60
2022-09-28T11:29:42.011Z,24.30
2022-09-28T11:32:24.067Z,22.60
2022-09-28T11:35:20.799Z,20.70
2022-09-28T11:38:32.053Z,19.80
2022-09-28T11:41:45.646Z,18.40
2022-09-28T11:44:33.405Z,17.60
2022-09-28T11:47:40.702Z,17.70
2022-09-28T11:50:36.050Z,18.50
2022-09-28T11:53:38.891Z,20.60
2022-09-28T11:56:32.054Z,22.70
2022-09-28T11:59:12.682Z,23.40
2022-09-28T12:01:51.661Z,24.50
2022-09-28T12:04:59.528Z,22.70
2022-09-28T12:07:38.293Z,21.00
2022-09-28T12:10:47.646Z,19.90
2022-09-28T12:13:26.830Z,18.90
2022-09-28T12:16:38.865Z,18.30
2022-09-28T12:19:17.147Z,17.40
2022-09-28T12:21:51.805Z,17.10
2022-09-28T12:24:33.772Z,16.80
2022-09-28T12:27:21.494Z,16.40
2022-09-28T12:32:35.888Z,16.00
2022-09-28T12:35:14.523Z,16.10
2022-09-28T12:38:11.621Z,16.20
2022-09-28T12:41:00.977Z,16.40
2022-09-28T12:43:45.421Z,16.90
2022-09-28T12:46:36.152Z,16.10
2022-09-28T12:50:36.615Z,17.00
2022-09-28T12:52:59.301Z,16.20
2022-09-28T12:55:40.642Z,15.40
2022-09-28T12:58:17.253Z,15.50
2022-09-28T13:01:02.351Z,15.10
2022-09-28T13:03:41.488Z,15.20
2022-09-28T13:06:24.705Z,15.20
2022-09-28T13:09:21.917Z,14.80
2022-09-28T13:14:59.694Z,14.50
2022-09-28T13:17:44.177Z,14.50
2022-09-28T13:20:39.496Z,14.70
2022-09-28T13:23:26.607Z,15.20
2022-09-28T13:26:11.315Z,15.20
2022-09-28T13:28:41.041Z,15.80
2022-09-28T13:31:11.100Z,16.00
2022-09-28T13:33:45.311Z,16.20
2022-09-28T13:36:31.242Z,15.70
2022-09-28T13:39:01.825Z,15.20
2022-09-28T13:41:38.189Z,14.60
2022-09-28T13:44:21.101Z,15.10
2022-09-28T13:47:26.223Z,14.90
2022-09-28T13:50:14.136Z,14.70
2022-09-28T13:53:11.302Z,14.30
2022-09-28T13:56:04.740Z,14.00
2022-09-28T14:01:11.235Z,13.80
2022-09-28T14:03:55.172Z,14.00
2022-09-28T14:06:33.934Z,13.70
2022-09-28T14:09:14.403Z,13.40
2022-09-28T14:12:01.540Z,13.80
2022-09-28T14:14:31.261Z,13.40
2022-09-28T14:17:21.542Z,14.30
2022-09-28T14:20:01.430Z,13.80
2022-09-28T14:22:55.383Z,13.80
2022-09-28T14:25:26.470Z,13.70
2022-09-28T14:28:23.548Z,13.70
2022-09-28T14:30:54.631Z,13.70
2022-09-28T14:33:24.641Z,13.80
2022-09-28T14:36:02.683Z,13.60
2022-09-28T14:39:03.443Z,13.40
2022-09-28T14:41:42.111Z,13.60
2022-09-28T14:44:16.802Z,13.50
2022-09-28T14:46:46.533Z,13.40
2022-09-28T14:49:20.313Z,13.40
2022-09-28T14:51:47.863Z,13.40
2022-09-28T14:54:22.067Z,13.20
2022-09-28T14:56:52.816Z,13.20
2022-09-28T14:59:26.773Z,13.10
2022-09-28T15:02:10.671Z,13.10
2022-09-28T15:05:06.491Z,13.00
2022-09-28T15:07:47.841Z,13.00
2022-09-28T15:10:27.711Z,13.00
2022-09-28T15:12:57.830Z,12.90
2022-09-28T15:15:34.849Z,12.80
2022-09-28T15:18:44.000Z,12.70
2022-09-28T15:21:12.660Z,12.60
2022-09-28T15:23:43.806Z,12.60
2022-09-28T15:26:32.498Z,12.50
2022-09-28T15:29:04.278Z,13.10
2022-09-28T15:31:36.463Z,12.40
2022-09-28T15:34:43.277Z,12.40
2022-09-28T15:39:39.716Z,12.10
2022-09-28T15:44:37.560Z,12.20
2022-09-28T15:47:17.639Z,12.20
2022-09-28T15:50:02.738Z,12.10
2022-09-28T15:52:47.361Z,12.00
2022-09-28T15:55:21.117Z,12.00
2022-09-28T16:00:26.145Z,11.90
2022-09-28T16:03:04.794Z,12.00
2022-09-28T16:05:36.369Z,12.00
2022-09-28T16:08:06.370Z,12.10
2022-09-28T16:10:35.510Z,12.00
2022-09-28T16:13:14.626Z,11.90
2022-09-28T16:15:43.061Z,11.90
2022-09-28T16:18:23.822Z,11.90
2022-09-28T16:20:57.061Z,12.70
2022-09-28T16:23:30.322Z,11.60
2022-09-28T16:26:08.773Z,11.50
2022-09-28T16:28:39.667Z,11.40
2022-09-28T16:31:13.538Z,13.30
2022-09-28T16:34:14.957Z,11.20
2022-09-28T16:36:45.678Z,11.00
2022-09-28T16:39:14.599Z,10.90
2022-09-28T16:41:48.364Z,10.90
2022-09-28T16:44:21.008Z,12.60
2022-09-28T16:46:48.721Z,10.70
2022-09-28T16:49:20.536Z,10.70
2022-09-28T16:51:48.664Z,10.70
2022-09-28T16:54:42.492Z,10.70
2022-09-28T16:57:12.795Z,10.60
2022-09-28T16:59:40.352Z,10.60
2022-09-28T17:05:14.051Z,10.20
2022-09-28T17:07:42.138Z,10.10
2022-09-28T17:10:45.093Z,10.10
2022-09-28T17:13:36.348Z,10.10
2022-09-28T17:16:18.338Z,10.10
2022-09-28T17:18:47.269Z,10.00
2022-09-28T17:21:21.208Z,10.00
2022-09-28T17:23:50.675Z,10.00
2022-09-28T17:26:33.899Z,9.90
2022-09-28T17:29:02.510Z,9.90
2022-09-28T17:31:31.857Z,9.80
2022-09-28T17:33:59.888Z,9.80
2022-09-28T17:36:27.577Z,9.70
2022-09-28T17:38:54.966Z,9.60
2022-09-28T17:41:22.302Z,9.50
2022-09-28T17:43:50.380Z,9.50
2022-09-28T17:46:40.835Z,9.50
2022-09-28T17:49:11.807Z,9.90
2022-09-28T17:51:39.344Z,9.50
2022-09-28T17:54:08.353Z,9.50
2022-09-28T17:56:37.223Z,9.50
2022-09-28T17:59:08.390Z,9.50
2022-09-28T18:01:39.786Z,9.50
2022-09-28T18:04:13.172Z,9.50
2022-09-28T18:06:46.786Z,9.50
2022-09-28T18:09:16.120Z,9.50
2022-09-28T18:11:45.707Z,9.50
2022-09-28T18:14:13.388Z,9.40
2022-09-28T18:16:40.980Z,9.40
2022-09-28T18:19:08.985Z,9.50
2022-09-28T18:21:36.542Z,9.50
2022-09-28T18:24:04.502Z,9.40
2022-09-28T18:26:32.302Z,9.30
2022-09-28T18:29:00.040Z,9.40
2022-09-28T18:31:28.419Z,9.30
2022-09-28T18:34:04.698Z,9.20
2022-09-28T18:36:36.471Z,9.30
2022-09-28T18:39:05.590Z,9.20
2022-09-28T18:41:34.175Z,9.20
2022-09-28T18:44:02.629Z,9.20
2022-09-28T18:46:38.233Z,9.20
2022-09-28T18:49:07.133Z,9.20
2022-09-28T18:51:34.621Z,9.10
2022-09-28T18:54:08.116Z,9.10
2022-09-28T18:56:38.620Z,9.20
2022-09-28T18:59:13.429Z,9.30
2022-09-28T19:01:42.205Z,9.30
2022-09-28T19:04:11.640Z,9.30
2022-09-28T19:06:41.052Z,9.20
2022-09-28T19:09:09.481Z,9.30
2022-09-28T19:11:37.696Z,9.20
2022-09-28T19:14:05.618Z,9.20
2022-09-28T19:16:36.827Z,9.30
2022-09-28T19:19:04.756Z,9.20
2022-09-28T19:21:32.679Z,9.20
2022-09-28T19:24:01.842Z,9.20
2022-09-28T19:26:29.763Z,9.20
2022-09-28T19:28:58.481Z,9.20
2022-09-28T19:31:27.394Z,9.30
2022-09-28T19:33:54.980Z,9.20
2022-09-28T19:36:24.818Z,9.20
2022-09-28T19:38:53.567Z,9.20
2022-09-28T19:41:43.723Z,9.20
2022-09-28T19:44:27.921Z,9.20
2022-09-28T19:47:10.727Z,9.20
2022-09-28T19:49:41.257Z,9.20
2022-09-28T19:52:16.554Z,9.20
2022-09-28T19:55:01.429Z,9.30
2022-09-28T19:57:33.671Z,9.30
2022-09-28T20:00:03.992Z,9.20
2022-09-28T20:02:36.888Z,9.20
2022-09-28T20:05:04.849Z,9.20
2022-09-28T20:07:34.347Z,9.20
2022-09-28T20:10:02.164Z,9.20
2022-09-28T20:12:30.141Z,9.20
2022-09-28T20:14:57.979Z,9.20
2022-09-28T20:17:25.768Z,9.20
2022-09-28T20:19:53.342Z,9.30
2022-09-28T20:22:21.462Z,9.20
2022-09-28T20:24:49.215Z,9.30
2022-09-28T20:27:16.859Z,9.20
2022-09-28T20:29:44.310Z,9.20
2022-09-28T20:32:11.844Z,9.40
2022-09-28T20:34:39.666Z,9.20
2022-09-28T20:37:07.720Z,9.20
2022-09-28T20:39:35.468Z,9.20
2022-09-28T20:42:04.612Z,9.10
2022-09-28T20:44:32.511Z,9.10
2022-09-28T20:47:00.296Z,9.10
2022-09-28T20:49:28.452Z,9.20
2022-09-28T20:51:55.918Z,9.20
2022-09-28T20:54:23.636Z,9.20
2022-09-28T20:56:51.831Z,9.10
2022-09-28T20:59:23.479Z,9.20
2022-09-28T21:01:52.941Z,9.20
2022-09-28T21:04:22.041Z,9.20
2022-09-28T21:06:50.618Z,9.20
2022-09-28T21:09:18.129Z,9.10
2022-09-28T21:11:46.770Z,9.10
2022-09-28T21:14:14.119Z,9.20
2022-09-28T21:16:41.447Z,9.30
2022-09-28T21:19:09.027Z,9.30
2022-09-28T21:21:36.517Z,9.30
2022-09-28T21:24:04.142Z,9.30
2022-09-28T21:26:33.109Z,9.30
2022-09-28T21:29:06.620Z,9.30
2022-09-28T21:31:42.397Z,9.20
2022-09-28T21:34:14.431Z,9.20
2022-09-28T21:36:43.574Z,9.20
2022-09-28T21:39:11.001Z,9.10
2022-09-28T21:41:38.965Z,9.10
2022-09-28T21:44:07.314Z,9.10
2022-09-28T21:46:36.764Z,9.20
2022-09-28T21:49:07.919Z,9.20
2022-09-28T21:51:36.135Z,9.10
2022-09-28T21:54:03.799Z,9.10
2022-09-28T21:56:31.438Z,9.10
2022-09-28T21:58:59.146Z,9.10
2022-09-28T22:01:26.829Z,9.10
2022-09-28T22:03:55.860Z,9.10
2022-09-28T22:06:28.110Z,9.10
2022-09-28T22:08:56.133Z,9.10
2022-09-28T22:11:27.053Z,9.10
2022-09-28T22:13:57.543Z,9.20
2022-09-28T22:16:28.011Z,9.10
2022-09-28T22:18:55.576Z,9.10
2022-09-28T22:21:25.357Z,9.20
2022-09-28T22:23:53.108Z,10.80
2022-09-28T22:26:23.650Z,9.20
2022-09-28T22:28:53.918Z,9.20
2022-09-28T22:31:26.827Z,10.50
2022-09-28T22:33:55.044Z,9.00
2022-09-28T22:36:23.413Z,9.00
2022-09-28T22:38:50.853Z,9.00
2022-09-28T22:41:22.431Z,9.00
2022-09-28T22:43:51.883Z,9.00
2022-09-28T22:46:22.487Z,9.00
2022-09-28T22:48:53.008Z,9.00
2022-09-28T22:51:21.616Z,9.10
2022-09-28T22:53:49.105Z,9.00
2022-09-28T22:56:18.965Z,9.10
2022-09-28T22:58:46.851Z,9.00
2022-09-28T23:01:17.902Z,9.00
2022-09-28T23:03:46.115Z,9.00
2022-09-28T23:06:19.071Z,9.10
2022-09-28T23:08:47.843Z,9.10
2022-09-28T23:11:16.022Z,9.10
2022-09-28T23:13:43.640Z,9.00
2022-09-28T23:16:13.055Z,9.00
2022-09-28T23:18:41.214Z,8.90
2022-09-28T23:21:12.792Z,8.90
2022-09-28T23:23:40.194Z,8.90
2022-09-28T23:26:11.603Z,8.80
2022-09-28T23:28:38.784Z,8.70
2022-09-28T23:31:18.202Z,8.80
2022-09-28T23:33:46.520Z,8.80
2022-09-28T23:36:14.271Z,8.70
2022-09-28T23:38:41.819Z,8.80
2022-09-28T23:41:09.682Z,8.90
2022-09-28T23:43:37.171Z,9.00
2022-09-28T23:46:05.443Z,8.90
2022-09-28T23:48:33.510Z,8.90
2022-09-28T23:51:01.064Z,9.00
2022-09-28T23:53:29.300Z,9.00
2022-09-28T23:55:56.444Z,9.00
2022-09-28T23:58:24.570Z,9.00
